createdAt,value
2023-07-22T00:00:42.782Z,97099.25
2023-07-22T00:03:09.608Z,97102.84
2023-07-22T00:05:36.177Z,97098.28
2023-07-22T00:08:02.746Z,97095.34
2023-07-22T00:10:29.306Z,97100.09
2023-07-22T00:12:55.931Z,97106.34
2023-07-22T00:15:22.541Z,97109.72
2023-07-22T00:17:49.233Z,97105.47
2023-07-22T00:20:15.925Z,97107.41
2023-07-22T00:22:42.532Z,97097.84
2023-07-22T00:25:09.202Z,97101.34
2023-07-22T00:27:35.864Z,97099.25
2023-07-22T00:30:02.504Z,97099.56
2023-07-22T00:32:29.107Z,97096.31
2023-07-22T00:34:55.764Z,97093.56
2023-07-22T00:37:22.377Z,97098.06
2023-07-22T00:39:48.926Z,97102.44
2023-07-22T00:42:15.572Z,97095.88
2023-07-22T00:44:42.251Z,97102.72
2023-07-22T00:47:08.854Z,97099.78
2023-07-22T00:49:35.493Z,97096.44
2023-07-22T00:52:02.094Z,97093.69
2023-07-22T00:54:28.655Z,97095.88
2023-07-22T00:56:55.275Z,97090.31
2023-07-22T00:59:21.838Z,97090.31
2023-07-22T01:01:48.437Z,97084.53
2023-07-22T01:04:15.054Z,97100.75
2023-07-22T01:06:41.652Z,97093.91
2023-07-22T01:09:08.366Z,97092.84
2023-07-22T01:11:37.818Z,97084.19
2023-07-22T01:14:04.405Z,97078.06
2023-07-22T01:16:30.992Z,97083.00
2023-07-22T01:18:57.616Z,97086.50
2023-07-22T01:21:24.246Z,97080.47
2023-07-22T01:23:50.810Z,97086.06
2023-07-22T01:26:17.375Z,97082.34
2023-07-22T01:28:43.995Z,97088.56
2023-07-22T01:31:10.607Z,97092.34
2023-07-22T01:33:37.335Z,97087.78
2023-07-22T01:36:03.875Z,97081.66
2023-07-22T01:38:30.403Z,97081.47
2023-07-22T01:40:56.994Z,97082.75
2023-07-22T01:43:23.566Z,97079.94
2023-07-22T01:45:50.152Z,97067.81
2023-07-22T01:48:16.787Z,97078.09
2023-07-22T01:50:43.359Z,97073.81
2023-07-22T01:53:11.376Z,97071.00
2023-07-22T01:55:37.947Z,97078.94
2023-07-22T01:58:04.506Z,97071.75
2023-07-22T02:00:31.095Z,97069.34
2023-07-22T02:02:57.755Z,97070.34
2023-07-22T02:05:24.510Z,97067.50
2023-07-22T02:07:51.127Z,97066.97
2023-07-22T02:10:17.723Z,97068.16
2023-07-22T02:12:44.293Z,97067.28
2023-07-22T02:15:10.875Z,97071.09
2023-07-22T02:17:37.488Z,97070.34
2023-07-22T02:20:04.102Z,97068.03
2023-07-22T02:22:30.735Z,97075.34
2023-07-22T02:24:57.369Z,97080.13
2023-07-22T02:27:23.981Z,97077.06
2023-07-22T02:29:50.607Z,97078.28
2023-07-22T02:32:17.134Z,97066.50
2023-07-22T02:34:43.674Z,97078.81
2023-07-22T02:37:10.304Z,97075.88
2023-07-22T02:39:36.829Z,97082.84
2023-07-22T02:42:03.455Z,97083.50
2023-07-22T02:44:29.954Z,97082.28
2023-07-22T02:46:56.558Z,97079.13
2023-07-22T02:49:23.493Z,97086.66
2023-07-22T02:51:50.076Z,97091.53
2023-07-22T02:54:16.665Z,97084.66
2023-07-22T02:56:43.270Z,97080.44
2023-07-22T02:59:09.845Z,97077.28
2023-07-22T03:01:36.407Z,97082.72
2023-07-22T03:04:02.992Z,97079.22
2023-07-22T03:06:29.737Z,97084.72
2023-07-22T03:08:56.436Z,97078.50
2023-07-22T03:11:23.089Z,97076.13
2023-07-22T03:13:49.721Z,97079.97
2023-07-22T03:16:16.399Z,97078.59
2023-07-22T03:18:43.078Z,97085.00
2023-07-22T03:21:09.684Z,97079.19
2023-07-22T03:23:36.199Z,97092.31
2023-07-22T03:26:02.981Z,97091.31
2023-07-22T03:28:29.630Z,97089.78
2023-07-22T03:30:56.287Z,97096.75
2023-07-22T03:33:22.878Z,97106.22
2023-07-22T03:35:49.437Z,97105.81
2023-07-22T03:38:16.020Z,97110.09
2023-07-22T03:40:42.578Z,97103.13
2023-07-22T03:43:09.169Z,97108.69
2023-07-22T03:45:35.766Z,97117.38
2023-07-22T03:48:02.492Z,97112.34
2023-07-22T03:50:29.346Z,97115.78
2023-07-22T03:52:56.131Z,97127.34
2023-07-22T03:55:22.736Z,97132.38
2023-07-22T03:57:49.349Z,97126.75
2023-07-22T04:00:15.944Z,97131.50
2023-07-22T04:02:42.587Z,97131.72
2023-07-22T04:05:09.208Z,97135.78
2023-07-22T04:07:35.978Z,97135.09
2023-07-22T04:10:02.541Z,97131.13
2023-07-22T04:12:29.128Z,97135.31
2023-07-22T04:14:55.749Z,97139.72
2023-07-22T04:17:22.447Z,97146.66
2023-07-22T04:19:49.058Z,97141.06
2023-07-22T04:22:15.660Z,97141.47
2023-07-22T04:24:42.364Z,97143.28
2023-07-22T04:27:09.072Z,97149.69
2023-07-22T04:29:35.634Z,97144.47
2023-07-22T04:32:02.239Z,97146.50
2023-07-22T04:34:28.727Z,97153.50
2023-07-22T04:36:55.308Z,97153.31
2023-07-22T04:39:21.876Z,97154.88
2023-07-22T04:41:48.488Z,97150.09
2023-07-22T04:44:15.066Z,97158.56
2023-07-22T04:46:41.707Z,97156.22
2023-07-22T04:49:08.349Z,97165.22
2023-07-22T04:51:34.877Z,97173.03
2023-07-22T04:54:01.445Z,97177.28
2023-07-22T04:56:28.342Z,97174.13
2023-07-22T04:58:55.176Z,97177.59
2023-07-22T05:01:21.765Z,97180.03
2023-07-22T05:03:48.439Z,97176.78
2023-07-22T05:06:15.080Z,97183.06
2023-07-22T05:08:41.605Z,97178.16
2023-07-22T05:11:08.253Z,97178.97
2023-07-22T05:13:34.793Z,97181.50
2023-07-22T05:16:01.447Z,97184.34
2023-07-22T05:18:28.070Z,97179.22
2023-07-22T05:20:54.669Z,97177.47
2023-07-22T05:23:21.279Z,97182.22
2023-07-22T05:25:47.842Z,97182.06
2023-07-22T05:28:14.611Z,97184.09
2023-07-22T05:30:41.197Z,97178.97
2023-07-22T05:33:07.811Z,97179.59
2023-07-22T05:35:34.670Z,97184.41
2023-07-22T05:38:01.313Z,97176.44
2023-07-22T05:40:28.081Z,97177.41
2023-07-22T05:42:54.656Z,97183.41
2023-07-22T05:45:21.270Z,97191.94
2023-07-22T05:47:48.130Z,97189.63
2023-07-22T05:50:14.779Z,97186.63
2023-07-22T05:52:41.317Z,97188.09
2023-07-22T05:55:07.979Z,97188.28
2023-07-22T05:57:34.593Z,97186.47
2023-07-22T06:02:30.631Z,97192.59
2023-07-22T06:04:57.209Z,97194.88
2023-07-22T06:07:23.805Z,97187.47
2023-07-22T06:09:50.413Z,97198.19
2023-07-22T06:12:16.989Z,97190.19
2023-07-22T06:14:43.636Z,97192.75
2023-07-22T06:17:10.244Z,97203.38
2023-07-22T06:19:36.853Z,97200.50
2023-07-22T06:22:03.428Z,97201.50
2023-07-22T06:24:30.114Z,97200.41
2023-07-22T06:26:56.808Z,97197.69
2023-07-22T06:29:23.389Z,97193.78
2023-07-22T06:31:50.019Z,97198.00
2023-07-22T06:34:16.593Z,97200.22
2023-07-22T06:36:43.176Z,97199.13
2023-07-22T06:39:09.751Z,97192.66
2023-07-22T06:41:36.389Z,97204.56
2023-07-22T06:44:02.997Z,97204.47
2023-07-22T06:46:29.872Z,97204.63
2023-07-22T06:48:57.125Z,97215.38
2023-07-22T06:51:23.657Z,97202.78
2023-07-22T06:53:50.211Z,97211.19
2023-07-22T06:56:16.802Z,97206.53
2023-07-22T06:58:43.430Z,97215.00
2023-07-22T07:01:10.205Z,97218.41
2023-07-22T07:03:36.923Z,97219.50
2023-07-22T07:06:03.501Z,97222.91
2023-07-22T07:08:30.118Z,97218.84
2023-07-22T07:10:56.902Z,97220.81
2023-07-22T07:13:23.645Z,97216.09
2023-07-22T07:15:50.333Z,97210.41
2023-07-22T07:18:16.871Z,97217.72
2023-07-22T07:20:43.447Z,97219.94
2023-07-22T07:23:09.977Z,97220.59
2023-07-22T07:25:36.552Z,97212.25
2023-07-22T07:28:03.104Z,97214.88
2023-07-22T07:30:29.752Z,97224.00
2023-07-22T07:32:56.372Z,97216.88
2023-07-22T07:35:22.930Z,97224.88
2023-07-22T07:37:49.533Z,97207.91
2023-07-22T07:40:16.078Z,97220.31
2023-07-22T07:42:42.669Z,97221.63
2023-07-22T07:45:09.252Z,97216.44
2023-07-22T07:47:35.890Z,97227.88
2023-07-22T07:50:02.556Z,97225.50
2023-07-22T07:52:29.170Z,97226.09
2023-07-22T07:54:55.756Z,97213.53
2023-07-22T07:57:22.270Z,97226.28
2023-07-22T07:59:48.871Z,97225.75
2023-07-22T08:02:15.409Z,97228.47
2023-07-22T08:04:41.991Z,97222.25
2023-07-22T08:07:08.555Z,97230.06
2023-07-22T08:09:35.129Z,97230.84
2023-07-22T08:12:01.648Z,97224.56
2023-07-22T08:14:28.225Z,97226.97
2023-07-22T08:16:54.720Z,97232.41
2023-07-22T08:19:21.427Z,97228.78
2023-07-22T08:21:47.981Z,97223.22
2023-07-22T08:24:14.537Z,97225.41
2023-07-22T08:26:41.214Z,97223.47
2023-07-22T08:29:07.801Z,97215.63
2023-07-22T08:31:34.424Z,97226.97
2023-07-22T08:34:01.004Z,97225.25
2023-07-22T08:36:27.771Z,97224.72
2023-07-22T08:38:54.586Z,97225.25
2023-07-22T08:41:21.188Z,97227.97
2023-07-22T08:43:47.841Z,97225.31
2023-07-22T08:46:14.508Z,97224.97
2023-07-22T08:48:41.127Z,97229.44
2023-07-22T08:51:07.828Z,97227.59
2023-07-22T08:53:34.664Z,97227.28
2023-07-22T08:56:01.845Z,97221.19
2023-07-22T08:58:28.441Z,97221.91
2023-07-22T09:00:55.006Z,97222.53
2023-07-22T09:03:21.768Z,97218.09
2023-07-22T09:05:48.343Z,97211.88
2023-07-22T09:08:15.332Z,97214.72
2023-07-22T09:10:41.878Z,97214.41
2023-07-22T09:13:08.443Z,97211.47
2023-07-22T09:15:35.016Z,97218.03
2023-07-22T09:18:01.608Z,97212.25
2023-07-22T09:20:28.210Z,97213.88
2023-07-22T09:23:07.486Z,97212.47
2023-07-22T09:25:40.298Z,97214.84
2023-07-22T09:28:07.081Z,97208.22
2023-07-22T09:30:33.617Z,97219.00
2023-07-22T09:33:00.217Z,97211.81
2023-07-22T09:35:26.789Z,97210.72
2023-07-22T09:37:53.305Z,97216.72
2023-07-22T09:40:19.884Z,97215.66
2023-07-22T09:42:46.460Z,97217.84
2023-07-22T09:45:13.066Z,97217.84
2023-07-22T09:47:39.699Z,97207.78
2023-07-22T09:50:06.340Z,97205.81
2023-07-22T09:52:32.887Z,97211.03
2023-07-22T09:54:59.436Z,97203.09
2023-07-22T09:57:25.986Z,97204.84
2023-07-22T09:59:53.059Z,97211.59
2023-07-22T10:02:19.634Z,97209.31
2023-07-22T10:04:46.150Z,97197.97
2023-07-22T10:07:12.680Z,97203.28
2023-07-22T10:09:39.276Z,97201.38
2023-07-22T10:12:05.876Z,97207.34
2023-07-22T10:14:32.746Z,97197.28
2023-07-22T10:17:00.409Z,97199.38
2023-07-22T10:19:26.974Z,97207.34
2023-07-22T10:21:53.649Z,97199.50
2023-07-22T10:24:20.176Z,97198.59
2023-07-22T10:26:48.106Z,97199.72
2023-07-22T10:29:21.735Z,97193.78
2023-07-22T10:31:48.273Z,97195.25
2023-07-22T10:34:14.841Z,97191.31
2023-07-22T10:36:42.033Z,97187.56
2023-07-22T10:39:08.656Z,97190.75
2023-07-22T10:41:35.242Z,97192.41
2023-07-22T10:44:02.151Z,97189.88
2023-07-22T10:46:29.194Z,97197.97
2023-07-22T10:48:55.950Z,97185.31
2023-07-22T10:51:22.505Z,97185.44
2023-07-22T10:53:49.065Z,97184.09
2023-07-22T10:56:15.635Z,97173.84
2023-07-22T10:58:42.249Z,97179.53
2023-07-22T11:01:08.857Z,97181.25
2023-07-22T11:03:35.436Z,97174.94
2023-07-22T11:06:04.890Z,97174.81
2023-07-22T11:08:31.610Z,97172.09
2023-07-22T11:10:58.237Z,97170.81
2023-07-22T11:13:27.388Z,97163.78
2023-07-22T11:15:54.308Z,97166.00
2023-07-22T11:18:21.904Z,97162.69
2023-07-22T11:20:48.477Z,97164.53
2023-07-22T11:23:15.137Z,97151.78
2023-07-22T11:25:41.704Z,97157.69
2023-07-22T11:28:11.246Z,97155.59
2023-07-22T11:30:37.834Z,97152.44
2023-07-22T11:33:04.436Z,97145.69
2023-07-22T11:35:31.033Z,97150.25
2023-07-22T11:37:57.592Z,97148.59
2023-07-22T11:40:24.379Z,97143.53
2023-07-22T11:42:50.969Z,97143.53
2023-07-22T11:45:17.497Z,97136.34
2023-07-22T11:47:44.186Z,97142.28
2023-07-22T11:50:11.813Z,97136.25
2023-07-22T11:52:38.381Z,97133.91
2023-07-22T11:55:05.044Z,97134.66
2023-07-22T11:57:31.654Z,97124.91
2023-07-22T11:59:58.328Z,97124.78
2023-07-22T12:02:24.911Z,97124.00
2023-07-22T12:04:51.499Z,97129.38
2023-07-22T12:07:18.091Z,97123.75
2023-07-22T12:09:44.705Z,97130.41
2023-07-22T12:12:11.286Z,97129.34
2023-07-22T12:14:41.080Z,97124.00
2023-07-22T12:17:07.653Z,97119.63
2023-07-22T12:19:34.233Z,97120.16
2023-07-22T12:22:00.779Z,97112.25
2023-07-22T12:24:27.298Z,97118.00
2023-07-22T12:26:53.953Z,97111.91
2023-07-22T12:29:20.583Z,97112.38
2023-07-22T12:31:47.167Z,97106.50
2023-07-22T12:34:13.764Z,97102.63
2023-07-22T12:36:40.323Z,97100.78
2023-07-22T12:39:07.025Z,97105.47
2023-07-22T12:41:33.538Z,97098.25
2023-07-22T12:44:00.187Z,97104.69
2023-07-22T12:46:27.050Z,97097.16
2023-07-22T12:48:53.600Z,97091.38
2023-07-22T12:51:20.127Z,97093.22
2023-07-22T12:53:46.705Z,97086.06
2023-07-22T12:56:13.313Z,97089.44
2023-07-22T12:58:39.921Z,97087.31
2023-07-22T13:01:06.645Z,97081.66
2023-07-22T13:03:33.321Z,97086.63
2023-07-22T13:05:59.902Z,97087.06
2023-07-22T13:08:26.490Z,97085.19
2023-07-22T13:10:53.101Z,97087.31
2023-07-22T13:13:19.712Z,97080.47
2023-07-22T13:15:46.321Z,97079.59
2023-07-22T13:18:12.965Z,97073.84
2023-07-22T13:20:39.556Z,97088.06
2023-07-22T13:23:08.636Z,97076.78
2023-07-22T13:25:35.185Z,97073.22
2023-07-22T13:28:01.726Z,97091.13
2023-07-22T13:30:28.324Z,97076.06
2023-07-22T13:32:54.834Z,97077.00
2023-07-22T13:35:21.405Z,97078.97
2023-07-22T13:37:47.920Z,97067.59
2023-07-22T13:40:17.343Z,97066.28
2023-07-22T13:42:44.298Z,97074.44
2023-07-22T13:45:10.949Z,97071.91
2023-07-22T13:47:37.675Z,97063.25
2023-07-22T13:50:04.303Z,97065.28
2023-07-22T13:52:31.015Z,97059.19
2023-07-22T13:54:57.650Z,97063.38
2023-07-22T13:57:24.276Z,97052.75
2023-07-22T13:59:50.929Z,97048.44
2023-07-22T14:02:17.531Z,97050.16
2023-07-22T14:04:44.178Z,97062.19
2023-07-22T14:07:10.765Z,97050.75
2023-07-22T14:09:37.339Z,97060.19
2023-07-22T14:12:03.850Z,97057.31
2023-07-22T14:14:30.422Z,97048.78
2023-07-22T14:16:57.050Z,97050.06
2023-07-22T14:19:23.689Z,97044.69
2023-07-22T14:21:50.391Z,97049.91
2023-07-22T14:24:17.043Z,97052.03
2023-07-22T14:26:43.658Z,97042.31
2023-07-22T14:29:10.279Z,97040.19
2023-07-22T14:31:36.886Z,97042.31
2023-07-22T14:34:03.505Z,97043.81
2023-07-22T14:36:30.050Z,97038.69
2023-07-22T14:38:56.663Z,97045.38
2023-07-22T14:41:23.220Z,97030.53
2023-07-22T14:43:49.886Z,97040.22
2023-07-22T14:46:16.451Z,97042.53
2023-07-22T14:48:43.039Z,97035.97
2023-07-22T14:51:09.664Z,97029.91
2023-07-22T14:53:36.278Z,97033.25
2023-07-22T14:56:02.906Z,97020.50
2023-07-22T14:58:29.474Z,97024.44
2023-07-22T15:00:56.031Z,97021.38
2023-07-22T15:03:22.844Z,97026.25
2023-07-22T15:05:49.412Z,97027.19
2023-07-22T15:08:15.950Z,97023.06
2023-07-22T15:10:42.741Z,97020.03
2023-07-22T15:13:09.721Z,97021.69
2023-07-22T15:15:36.340Z,97018.16
2023-07-22T15:18:02.932Z,97016.66
2023-07-22T15:20:30.264Z,97016.47
2023-07-22T15:22:56.879Z,97011.53
2023-07-22T15:25:23.458Z,97015.78
2023-07-22T15:27:50.008Z,97010.84
2023-07-22T15:32:42.476Z,97005.34
2023-07-22T15:35:09.081Z,97005.53
2023-07-22T15:37:35.623Z,97004.72
2023-07-22T15:40:02.184Z,97009.38
2023-07-22T15:42:28.813Z,97012.00
2023-07-22T15:44:55.385Z,97003.84
2023-07-22T15:47:22.026Z,97014.06
2023-07-22T15:49:48.600Z,97006.09
2023-07-22T15:52:15.173Z,97009.13
2023-07-22T15:54:41.767Z,97008.25
2023-07-22T15:57:08.331Z,97003.59
2023-07-22T15:59:34.897Z,97004.84
2023-07-22T16:02:01.545Z,96996.91
2023-07-22T16:04:28.143Z,97004.06
2023-07-22T16:06:54.732Z,96997.81
2023-07-22T16:09:21.299Z,96999.50
2023-07-22T16:11:47.948Z,97000.91
2023-07-22T16:14:14.602Z,96999.63
2023-07-22T16:16:41.166Z,96992.50
2023-07-22T16:19:07.786Z,96998.88
2023-07-22T16:21:34.351Z,96991.84
2023-07-22T16:24:00.938Z,96998.50
2023-07-22T16:26:27.442Z,96995.16
2023-07-22T16:28:53.947Z,96995.59
2023-07-22T16:31:20.525Z,96990.31
2023-07-22T16:33:47.154Z,96986.38
2023-07-22T16:36:13.771Z,96981.94
2023-07-22T16:38:40.382Z,96975.22
2023-07-22T16:41:07.010Z,96971.25
2023-07-22T16:43:33.603Z,96980.50
2023-07-22T16:46:00.204Z,96972.38
2023-07-22T16:48:26.800Z,96973.75
2023-07-22T16:50:53.356Z,96973.75
2023-07-22T16:53:19.960Z,96976.50
2023-07-22T16:55:46.585Z,96973.88
2023-07-22T16:58:13.172Z,96971.91
2023-07-22T17:00:39.749Z,96977.13
2023-07-22T17:03:06.448Z,96978.13
2023-07-22T17:05:33.025Z,96971.59
2023-07-22T17:07:59.557Z,96971.44
2023-07-22T17:10:26.138Z,96968.88
2023-07-22T17:12:52.677Z,96963.84
2023-07-22T17:15:19.423Z,96965.69
2023-07-22T17:17:46.029Z,96971.44
2023-07-22T17:20:12.626Z,96972.16
2023-07-22T17:22:39.150Z,96969.78
2023-07-22T17:25:05.731Z,96963.28
2023-07-22T17:27:32.315Z,96963.75
2023-07-22T17:29:58.910Z,96965.56
2023-07-22T17:32:25.544Z,96963.41
2023-07-22T17:34:52.112Z,96964.84
2023-07-22T17:37:18.749Z,96963.81
2023-07-22T17:39:45.541Z,96954.09
2023-07-22T17:42:12.094Z,96961.69
2023-07-22T17:44:39.001Z,96958.50
2023-07-22T17:47:05.555Z,96953.00
2023-07-22T17:49:32.454Z,96946.81
2023-07-22T17:51:59.337Z,96951.38
2023-07-22T17:54:25.893Z,96954.44
2023-07-22T17:56:53.034Z,96952.31
2023-07-22T17:59:20.086Z,96955.19
2023-07-22T18:01:46.634Z,96955.34
2023-07-22T18:04:13.167Z,96956.41
2023-07-22T18:06:39.724Z,96948.19
2023-07-22T18:09:06.515Z,96952.63
2023-07-22T18:11:33.202Z,96959.81
2023-07-22T18:13:59.787Z,96954.31
2023-07-22T18:16:26.301Z,96950.03
2023-07-22T18:18:52.884Z,96957.50
2023-07-22T18:21:19.423Z,96956.00
2023-07-22T18:23:46.023Z,96955.56
2023-07-22T18:26:12.658Z,96958.16
2023-07-22T18:28:39.267Z,96959.66
2023-07-22T18:31:05.891Z,96956.63
2023-07-22T18:33:32.493Z,96959.66
2023-07-22T18:35:59.010Z,96958.75
2023-07-22T18:38:25.530Z,96955.09
2023-07-22T18:40:52.132Z,96959.03
2023-07-22T18:43:20.570Z,96955.88
2023-07-22T18:45:48.724Z,96960.13
2023-07-22T18:48:15.287Z,96965.13
2023-07-22T18:50:41.883Z,96969.09
2023-07-22T18:53:08.422Z,96963.59
2023-07-22T18:55:35.009Z,96968.31
2023-07-22T18:58:01.561Z,96965.44
2023-07-22T19:00:28.152Z,96965.09
2023-07-22T19:02:55.901Z,96971.34
2023-07-22T19:05:23.644Z,96979.72
2023-07-22T19:07:50.182Z,96975.44
2023-07-22T19:10:16.671Z,96980.91
2023-07-22T19:12:43.304Z,96979.38
2023-07-22T19:15:09.841Z,96980.75
2023-07-22T19:17:36.403Z,96980.56
2023-07-22T19:20:02.953Z,96990.88
2023-07-22T19:22:29.490Z,96986.00
2023-07-22T19:24:56.050Z,96994.41
2023-07-22T19:27:22.557Z,96993.94
2023-07-22T19:29:49.092Z,96996.75
2023-07-22T19:32:15.603Z,96999.84
2023-07-22T19:34:42.173Z,97004.09
2023-07-22T19:37:08.704Z,97001.38
2023-07-22T19:39:35.293Z,97010.56
2023-07-22T19:42:02.901Z,97011.41
2023-07-22T19:44:29.517Z,97015.31
2023-07-22T19:46:56.053Z,97022.31
2023-07-22T19:49:22.993Z,97014.09
2023-07-22T19:51:50.191Z,97021.53
2023-07-22T19:54:16.726Z,97032.63
2023-07-22T19:56:43.258Z,97032.78
2023-07-22T19:59:10.150Z,97041.06
2023-07-22T20:01:37.038Z,97044.44
2023-07-22T20:04:03.914Z,97039.44
2023-07-22T20:06:30.491Z,97049.78
2023-07-22T20:08:57.074Z,97048.69
2023-07-22T20:11:25.774Z,97055.81
2023-07-22T20:13:53.514Z,97058.69
2023-07-22T20:16:20.075Z,97053.81
2023-07-22T20:18:46.698Z,97056.41
2023-07-22T20:21:14.211Z,97059.63
2023-07-22T20:23:41.724Z,97061.09
2023-07-22T20:26:08.481Z,97058.19
2023-07-22T20:28:35.104Z,97062.28
2023-07-22T20:31:01.880Z,97063.81
2023-07-22T20:33:28.904Z,97056.34
2023-07-22T20:35:55.446Z,97061.28
2023-07-22T20:38:22.839Z,97056.78
2023-07-22T20:40:49.513Z,97057.97
2023-07-22T20:43:17.142Z,97057.88
2023-07-22T20:45:43.820Z,97054.50
2023-07-22T20:48:10.429Z,97059.09
2023-07-22T20:50:36.952Z,97059.25
2023-07-22T20:53:03.506Z,97061.34
2023-07-22T20:55:30.080Z,97063.94
2023-07-22T20:57:56.683Z,97060.13
2023-07-22T21:00:23.243Z,97062.88
2023-07-22T21:02:49.978Z,97058.63
2023-07-22T21:05:17.683Z,97069.78
2023-07-22T21:07:44.488Z,97067.25
2023-07-22T21:10:11.064Z,97054.16
2023-07-22T21:12:37.623Z,97068.72
2023-07-22T21:15:04.338Z,97070.53
2023-07-22T21:17:30.961Z,97067.19
2023-07-22T21:19:57.665Z,97064.00
2023-07-22T21:22:24.237Z,97070.19
2023-07-22T21:24:50.783Z,97073.34
2023-07-22T21:27:17.358Z,97067.75
2023-07-22T21:29:44.115Z,97079.78
2023-07-22T21:32:10.779Z,97061.44
2023-07-22T21:34:37.333Z,97062.56
2023-07-22T21:37:04.128Z,97076.44
2023-07-22T21:39:30.706Z,97077.00
2023-07-22T21:41:57.276Z,97073.41
2023-07-22T21:44:23.786Z,97072.84
2023-07-22T21:46:50.348Z,97074.34
2023-07-22T21:49:16.898Z,97078.41
2023-07-22T21:51:43.455Z,97079.59
2023-07-22T21:54:10.066Z,97075.38
2023-07-22T21:56:36.685Z,97077.00
2023-07-22T21:59:03.201Z,97069.13
2023-07-22T22:01:30.033Z,97073.00
2023-07-22T22:03:56.900Z,97075.50
2023-07-22T22:06:23.470Z,97071.13
2023-07-22T22:08:50.085Z,97081.75
2023-07-22T22:11:16.715Z,97079.00
2023-07-22T22:13:43.295Z,97082.28
2023-07-22T22:16:09.911Z,97079.13
2023-07-22T22:18:36.485Z,97084.59
2023-07-22T22:21:03.120Z,97079.47
2023-07-22T22:23:29.789Z,97079.13
2023-07-22T22:25:56.388Z,97084.59
2023-07-22T22:28:22.930Z,97087.22
2023-07-22T22:30:49.612Z,97078.81
2023-07-22T22:33:16.577Z,97081.94
2023-07-22T22:35:43.151Z,97078.25
2023-07-22T22:38:09.772Z,97091.22
2023-07-22T22:40:36.333Z,97089.72
2023-07-22T22:43:02.894Z,97090.59
2023-07-22T22:45:32.769Z,97083.16
2023-07-22T22:47:59.700Z,97089.19
2023-07-22T22:50:26.377Z,97075.34
2023-07-22T22:52:52.935Z,97081.13
2023-07-22T22:55:19.520Z,97081.66
2023-07-22T22:57:48.205Z,97081.34
2023-07-22T23:00:16.308Z,97080.69
2023-07-22T23:02:42.901Z,97078.59
2023-07-22T23:05:09.427Z,97069.22
2023-07-22T23:07:36.079Z,97071.31
2023-07-22T23:10:02.634Z,97076.44
2023-07-22T23:12:29.203Z,97065.88
2023-07-22T23:14:55.776Z,97068.16
2023-07-22T23:17:22.289Z,97071.22
2023-07-22T23:19:48.812Z,97071.31
2023-07-22T23:22:15.381Z,97068.06
2023-07-22T23:24:42.065Z,97070.56
2023-07-22T23:27:08.654Z,97060.53
2023-07-22T23:29:35.523Z,97067.97
2023-07-22T23:32:02.245Z,97070.25
2023-07-22T23:34:28.922Z,97062.31
2023-07-22T23:36:55.483Z,97058.16
2023-07-22T23:39:22.083Z,97053.78
2023-07-22T23:41:48.625Z,97057.91
2023-07-22T23:44:15.235Z,97055.44
2023-07-22T23:46:41.869Z,97053.91
2023-07-22T23:49:08.463Z,97052.38
2023-07-22T23:51:35.037Z,97051.06
2023-07-22T23:54:01.651Z,97059.88
2023-07-22T23:56:28.407Z,97054.19
2023-07-22T23:58:55.082Z,97061.63
